createdAt,value
2018-04-08T00:02:21.432Z,6.16
2018-04-08T00:06:22.396Z,6.15
2018-04-08T00:12:23.164Z,6.34
2018-04-08T00:16:24.021Z,6.36
2018-04-08T00:18:24.740Z,6.53
2018-04-08T00:22:25.406Z,6.47
2018-04-08T00:28:26.274Z,5.91
2018-04-08T00:32:26.994Z,6.28
2018-04-08T00:38:27.742Z,6.49
2018-04-08T00:44:28.582Z,5.69
2018-04-08T00:48:29.264Z,5.29
2018-04-08T00:54:30.062Z,4.97
2018-04-08T00:58:30.829Z,5.06
2018-04-08T01:04:31.571Z,5.21
2018-04-08T01:15:33.747Z,6.57
2018-04-08T01:19:34.456Z,5.79
2018-04-08T01:25:35.197Z,5.75
2018-04-08T01:31:36.042Z,6.65
2018-04-08T01:35:36.768Z,6.54
2018-04-08T01:41:37.504Z,6.63
2018-04-08T01:45:38.216Z,6.31
2018-04-08T01:47:38.933Z,7.42
2018-04-08T01:51:39.693Z,7.38
2018-04-08T01:57:40.511Z,6.67
2018-04-08T02:01:41.245Z,6.64
2018-04-08T02:07:42.122Z,6.54
2018-04-08T02:11:42.948Z,7.36
2018-04-08T02:13:43.648Z,7.01
2018-04-08T02:17:44.392Z,6.88
2018-04-08T02:23:45.188Z,6.59
2018-04-08T02:27:45.999Z,6.15
2018-04-08T02:33:46.721Z,6.35
2018-04-08T02:39:47.651Z,6.63
2018-04-08T02:43:48.513Z,6.08
2018-04-08T02:49:49.297Z,5.81
2018-04-08T02:53:50.010Z,5.51
2018-04-08T02:55:50.748Z,5.84
2018-04-08T02:59:51.549Z,5.64
2018-04-08T03:05:52.340Z,7.69
2018-04-08T03:09:53.161Z,7.02
2018-04-08T03:15:53.880Z,6.92
2018-04-08T03:19:54.710Z,6.29
2018-04-08T03:21:55.367Z,6.83
2018-04-08T03:25:56.092Z,6.35
2018-04-08T03:31:57.956Z,6.63
2018-04-08T03:35:58.672Z,6.43
2018-04-08T03:41:59.516Z,6.8
2018-04-08T03:48:00.198Z,6.17
2018-04-08T03:52:01.075Z,5.47
2018-04-08T03:58:01.961Z,5.18
2018-04-08T04:02:02.646Z,4.62
2018-04-08T04:04:03.397Z,4.93
2018-04-08T04:14:05.891Z,4.97
2018-04-08T04:14:06.059Z,4.74
2018-04-08T04:18:06.871Z,4.58
2018-04-08T04:24:07.648Z,5.22
2018-04-08T04:28:08.575Z,4.98
2018-04-08T04:30:09.477Z,4.81
2018-04-08T04:34:10.254Z,5.2
2018-04-08T04:40:11.001Z,5.79
2018-04-08T04:44:11.716Z,6.19
2018-04-08T04:50:12.446Z,5.85
2018-04-08T04:56:13.275Z,5.85
2018-04-08T05:00:14.318Z,5.36
2018-04-08T05:06:15.229Z,5.36
2018-04-08T05:10:15.900Z,4.86
2018-04-08T05:12:16.699Z,5.39
2018-04-08T05:16:17.586Z,4.66
2018-04-08T05:22:18.275Z,5.29
2018-04-08T05:26:18.958Z,5.28
2018-04-08T05:32:19.719Z,5.5
2018-04-08T05:36:20.597Z,4.87
2018-04-08T05:38:21.244Z,5.21
2018-04-08T05:42:22.076Z,4.39
2018-04-08T05:48:22.935Z,5.49
2018-04-08T05:52:23.813Z,5.74
2018-04-08T05:58:24.541Z,6.59
2018-04-08T06:04:25.325Z,7.07
2018-04-08T06:08:26.030Z,6.43
2018-04-08T06:14:26.806Z,6.68
2018-04-08T06:18:27.560Z,6.95
2018-04-08T06:20:28.528Z,6.67
2018-04-08T06:24:29.389Z,6.62
2018-04-08T06:30:30.823Z,6.51
2018-04-08T06:34:31.633Z,6.06
2018-04-08T06:40:32.614Z,6.86
2018-04-08T06:44:33.350Z,6.88
2018-04-08T06:46:34.161Z,7.85
2018-04-08T06:50:34.995Z,7.9
2018-04-08T06:56:35.763Z,11.64
2018-04-08T07:00:37.365Z,11.11
2018-04-08T07:06:38.082Z,10.63
2018-04-08T07:12:39.049Z,11.33
2018-04-08T07:16:39.946Z,11.77
2018-04-08T07:22:40.722Z,14.14
2018-04-08T07:26:41.496Z,13.12
2018-04-08T07:32:42.295Z,13.04
2018-04-08T07:38:43.045Z,13.77
2018-04-08T07:42:43.914Z,13.93
2018-04-08T07:48:44.784Z,13.16
2018-04-08T07:52:45.676Z,12.16
2018-04-08T07:54:46.460Z,11.69
2018-04-08T07:58:47.258Z,11.59
2018-04-08T08:04:48.066Z,10.77
2018-04-08T08:08:48.974Z,10.41
2018-04-08T08:14:49.812Z,10.68
2018-04-08T08:20:50.549Z,9.33
2018-04-08T08:24:51.373Z,9.22
2018-04-08T08:30:52.436Z,10.3
2018-04-08T08:34:53.268Z,9.63
2018-04-08T08:40:54.079Z,8.69
2018-04-08T08:46:54.869Z,10.5
2018-04-08T08:50:55.618Z,9.98
2018-04-08T08:56:56.622Z,10.79
2018-04-08T09:00:57.538Z,8.88
2018-04-08T09:02:58.557Z,5.14
2018-04-08T09:06:59.370Z,5.02
2018-04-08T09:12:59.991Z,4.16
2018-04-08T09:17:00.810Z,3.65
2018-04-08T09:23:01.608Z,3.74
2018-04-08T09:29:02.408Z,113.57
2018-04-08T09:33:03.193Z,126.15
2018-04-08T09:39:04.017Z,108.4
2018-04-08T09:43:04.826Z,105.61
2018-04-08T09:45:05.864Z,100.57
2018-04-08T09:49:07.025Z,100.68
2018-04-08T09:55:07.860Z,119.78
2018-04-08T09:59:08.798Z,108.95
2018-04-08T10:05:09.652Z,79.04
2018-04-08T10:09:10.423Z,110.15
2018-04-08T10:11:11.178Z,63.02
2018-04-08T10:15:12.369Z,39.55
2018-04-08T10:21:13.184Z,5.01
2018-04-08T10:25:14.033Z,4.2
2018-04-08T10:31:14.790Z,4.11
2018-04-08T10:37:15.576Z,4.09
2018-04-08T10:41:16.518Z,3.65
2018-04-08T10:47:17.343Z,3.18
2018-04-08T10:51:18.180Z,3.48
2018-04-08T10:53:19.059Z,4.7
2018-04-08T10:57:20.047Z,4.63
2018-04-08T11:03:20.879Z,3.99
2018-04-08T11:07:21.630Z,3.27
2018-04-08T11:13:22.441Z,5.18
2018-04-08T11:19:23.224Z,6.7
2018-04-08T11:23:23.928Z,5.03
2018-04-08T11:29:24.690Z,3.54
2018-04-08T11:33:25.528Z,3.4
2018-04-08T11:39:26.241Z,3.14
2018-04-08T11:45:27.584Z,3.52
2018-04-08T11:49:28.301Z,3.05
2018-04-08T11:55:33.833Z,3.26
2018-04-08T11:59:35.229Z,2.98
2018-04-08T12:01:36.638Z,2.99
2018-04-08T12:05:37.967Z,3.05
2018-04-08T12:11:38.718Z,3.07
2018-04-08T12:15:39.395Z,2.58
2018-04-08T12:21:40.208Z,2.73
2018-04-08T12:27:41.050Z,2.72
2018-04-08T12:31:41.820Z,2.58
2018-04-08T12:37:42.585Z,2.61
2018-04-08T12:41:43.394Z,2.73
2018-04-08T12:47:44.192Z,2.7
2018-04-08T12:53:44.985Z,2.55
2018-04-08T12:57:45.696Z,2.34
2018-04-08T13:03:46.880Z,2.68
2018-04-08T13:07:47.715Z,2.85
2018-04-08T13:09:48.482Z,2.59
2018-04-08T13:13:49.206Z,2.05
2018-04-08T13:19:49.921Z,2.81
2018-04-08T13:23:50.689Z,2.72
2018-04-08T13:29:51.480Z,3.09
2018-04-08T13:35:52.283Z,2.89
2018-04-08T13:39:53.146Z,2.96
2018-04-08T13:45:53.843Z,3.04
2018-04-08T13:49:54.639Z,2.73
2018-04-08T13:51:55.441Z,3.11
2018-04-08T13:55:56.320Z,2.77
2018-04-08T14:01:57.135Z,3.24
2018-04-08T14:05:57.983Z,2.41
2018-04-08T14:11:58.728Z,2.94
2018-04-08T14:15:59.674Z,2.41
2018-04-08T14:18:00.436Z,2.64
2018-04-08T14:22:01.173Z,2.72
2018-04-08T14:28:02.100Z,2.88
2018-04-08T14:32:02.968Z,2.7
2018-04-08T14:38:03.801Z,2.26
2018-04-08T14:44:04.578Z,2.68
2018-04-08T14:48:05.422Z,2.57
2018-04-08T14:54:06.187Z,2.94
2018-04-08T14:58:07.005Z,2.65
2018-04-08T15:00:07.877Z,2.68
2018-04-08T15:04:08.669Z,2.22
2018-04-08T15:10:09.443Z,2.52
2018-04-08T15:14:10.190Z,2.19
2018-04-08T15:20:10.892Z,2.61
2018-04-08T15:26:11.667Z,2.7
2018-04-08T15:30:12.735Z,2.81
2018-04-08T15:36:13.628Z,2.67
2018-04-08T15:40:14.334Z,2.4
2018-04-08T15:46:15.177Z,2.25
2018-04-08T15:52:16.066Z,2.59
2018-04-08T15:56:17.001Z,2.54
2018-04-08T16:02:17.742Z,3.02
2018-04-08T16:06:18.539Z,3.2
2018-04-08T16:08:19.307Z,2.97
2018-04-08T16:12:20.210Z,2.42
2018-04-08T16:18:21.008Z,3.83
2018-04-08T16:22:21.849Z,3.42
2018-04-08T16:28:22.814Z,2.75
2018-04-08T16:34:23.678Z,3.1
2018-04-08T16:38:24.432Z,2.66
2018-04-08T16:44:25.586Z,4.18
2018-04-08T16:48:26.226Z,3.47
2018-04-08T16:50:27.030Z,4.43
2018-04-08T16:54:27.804Z,3.88
2018-04-08T17:00:29.239Z,4.07
2018-04-08T17:04:30.011Z,3.89
2018-04-08T17:10:31.327Z,4.71
2018-04-08T17:14:32.151Z,4.71
2018-04-08T17:16:32.990Z,4.49
2018-04-08T17:20:33.977Z,4.09
2018-04-08T17:26:34.709Z,4.73
2018-04-08T17:30:35.592Z,4.34
2018-04-08T17:36:36.362Z,4.9
2018-04-08T17:42:37.182Z,5.03
2018-04-08T17:46:38.019Z,4.64
2018-04-08T17:52:38.944Z,4.41
2018-04-08T17:56:39.609Z,3.98
2018-04-08T17:58:40.423Z,4.57
2018-04-08T18:02:41.274Z,4.26
2018-04-08T18:08:42.111Z,5.97
2018-04-08T18:12:42.788Z,6.37
2018-04-08T18:18:43.608Z,9.07
2018-04-08T18:22:44.394Z,6.97
2018-04-08T18:24:45.159Z,6
2018-04-08T18:28:45.958Z,6.65
2018-04-08T18:34:46.717Z,7.87
2018-04-08T18:38:47.591Z,8.11
2018-04-08T18:44:48.364Z,7.21
2018-04-08T18:50:49.222Z,8.25
2018-04-08T18:54:49.902Z,8.26
2018-04-08T19:00:50.660Z,8.44
2018-04-08T19:04:51.379Z,8.41
2018-04-08T19:06:52.038Z,8.2
2018-04-08T19:10:52.927Z,7.75
2018-04-08T19:16:53.983Z,6.96
2018-04-08T19:20:54.693Z,6.44
2018-04-08T19:26:55.693Z,9.17
2018-04-08T19:32:56.515Z,8.11
2018-04-08T19:36:57.220Z,7.79
2018-04-08T19:42:58.008Z,8.78
2018-04-08T19:46:58.862Z,8.35
2018-04-08T19:52:59.895Z,7.96
2018-04-08T19:59:00.969Z,6.47
2018-04-08T20:03:01.697Z,6.14
2018-04-08T20:09:02.566Z,6.31
2018-04-08T20:13:03.468Z,6.36
2018-04-08T20:15:04.293Z,7.05
2018-04-08T20:19:05.081Z,6.62
2018-04-08T20:25:06.008Z,6.54
2018-04-08T20:29:06.737Z,6.76
2018-04-08T20:35:07.671Z,6.67
2018-04-08T20:41:08.576Z,5.94
2018-04-08T20:45:09.903Z,6.1
2018-04-08T20:51:10.673Z,6.92
2018-04-08T20:55:11.408Z,6.04
2018-04-08T20:57:12.106Z,7.24
2018-04-08T21:01:12.890Z,6.69
2018-04-08T21:07:13.825Z,6.49
2018-04-08T21:11:14.595Z,6.2
2018-04-08T21:17:15.466Z,6.63
2018-04-08T21:21:16.293Z,5.92
2018-04-08T21:23:17.031Z,6.92
2018-04-08T21:27:17.930Z,6.21
2018-04-08T21:33:18.807Z,6.65
2018-04-08T21:37:19.542Z,5.79
2018-04-08T21:43:20.273Z,5.36
2018-04-08T21:49:21.297Z,5.45
2018-04-08T21:53:22.092Z,5.18
2018-04-08T21:59:23.063Z,4.46
2018-04-08T22:03:23.841Z,4.09
2018-04-08T22:05:24.642Z,4.93
2018-04-08T22:09:25.383Z,4.35
2018-04-08T22:15:26.229Z,5.08
2018-04-08T22:19:27.866Z,4.88
2018-04-08T22:25:28.621Z,5.28
2018-04-08T22:29:29.551Z,4.58
2018-04-08T22:31:30.239Z,4.67
2018-04-08T22:35:31.087Z,4.49
2018-04-08T22:41:31.868Z,4.47
2018-04-08T22:45:32.589Z,4.38
2018-04-08T22:51:33.410Z,4.02
2018-04-08T22:57:34.251Z,4.1
2018-04-08T23:01:34.975Z,3.28
2018-04-08T23:07:35.817Z,3.34
2018-04-08T23:11:36.598Z,3.5
2018-04-08T23:13:37.371Z,3.36
2018-04-08T23:17:38.970Z,3.19
2018-04-08T23:23:40.046Z,3.27
2018-04-08T23:27:41.059Z,2.99
2018-04-08T23:33:41.995Z,2.97
2018-04-08T23:39:42.692Z,3.24
2018-04-08T23:43:43.470Z,3.55
2018-04-08T23:49:44.205Z,3.96
2018-04-08T23:53:45.277Z,3.51
2018-04-08T23:59:46.048Z,3.69
